Tawakoni's Hourly Summary for Friday, July 6, 2018
Hour Temp
(f)
RH
(%)
Solar Rad.
(MJ/m2)
Rainfall
(in)
Wind
(mph)
7/6/2018 12:00 AM 78 76 0 0 0
7/6/2018 1:00 AM 76 84 0 0 0
7/6/2018 2:00 AM 74 88 0 0 0
7/6/2018 3:00 AM 74 88 0 0 0
7/6/2018 4:00 AM 74 85 0 0 0
7/6/2018 5:00 AM 75 84 0 0 0
7/6/2018 6:00 AM 73 89 0 0 0
7/6/2018 7:00 AM 72 92 0.06 0 0
7/6/2018 8:00 AM 74 89 0.39 0 0
7/6/2018 9:00 AM 78 76 1.04 0 0
7/6/2018 10:00 AM 83 66 1.69 0 0.32
7/6/2018 11:00 AM 86 54 1.78 0 4.77
7/6/2018 12:00 PM 88 49 2.49 0 6.4
7/6/2018 1:00 PM 90 43 2.94 0 6.64
7/6/2018 2:00 PM 92 37 2.69 0 6.32
7/6/2018 3:00 PM 78 45 0.17 0 7.29
7/6/2018 4:00 PM 77 68 0.49 0 1.11
7/6/2018 5:00 PM 80 61 0.95 0 7.31
7/6/2018 6:00 PM 78 59 0.62 0 2.87
7/6/2018 7:00 PM 79 59 0.59 0 1.18
7/6/2018 8:00 PM 79 59 0.16 0 1.18
7/6/2018 9:00 PM 77 75 0.01 0 0.58
7/6/2018 10:00 PM 76 81 0 0 1.25
7/6/2018 11:00 PM 77 71 0 0 4.02
Data Summary 78 69 16.07 0.00 2.14